Time;durP1;ratioP1;P1;durP2;ratioP2;P2;SDS_P1;SDS_P2;PMS_P1;PMS_P2;Temp;Humidity;BMP_temperature;BMP_pressure;BME280_temperature;BME280_humidity;BME280_pressure;Samples;Min_cycle;Max_cycle;Signal;HPM_P1;HPM_P2
2021/12/01 00:00:23;;;;;;;1.80;1.70;;;5.50;99.90;;;;;;5035965;28;20412;-81
2021/12/01 00:02:53;;;;;;;1.60;1.50;;;5.50;99.90;;;;;;5036004;28;20555;-82
2021/12/01 00:05:22;;;;;;;1.57;1.47;;;5.50;99.90;;;;;;5036340;28;20370;-82
2021/12/01 00:07:49;;;;;;;1.73;1.63;;;5.60;99.90;;;;;;5036167;28;20406;-82
2021/12/01 00:10:16;;;;;;;1.77;1.67;;;5.40;99.90;;;;;;5042724;28;20375;-79
2021/12/01 00:12:42;;;;;;;2.17;2.07;;;5.50;99.90;;;;;;5036599;28;20388;-78
2021/12/01 00:15:08;;;;;;;1.57;1.47;;;5.50;99.90;;;;;;5054971;28;20523;-80
2021/12/01 00:17:34;;;;;;;2.07;1.43;;;5.50;99.90;;;;;;5037922;28;20814;-79
2021/12/01 00:20:01;;;;;;;1.87;1.77;;;5.50;99.90;;;;;;5019803;28;20463;-80
2021/12/01 00:22:27;;;;;;;1.70;1.60;;;5.40;99.90;;;;;;5036020;28;20558;-79
2021/12/01 00:24:54;;;;;;;2.10;1.97;;;5.40;99.90;;;;;;5035770;28;20386;-80
2021/12/01 00:27:20;;;;;;;2.47;2.23;;;5.40;99.90;;;;;;5035967;28;20494;-81
2021/12/01 00:29:48;;;;;;;1.80;1.70;;;5.40;99.90;;;;;;5035413;28;20472;-80
2021/12/01 00:32:16;;;;;;;2.20;2.00;;;5.40;99.90;;;;;;5035082;28;20378;-81
2021/12/01 00:34:42;;;;;;;1.83;1.73;;;5.40;99.90;;;;;;5035078;28;20926;-81
2021/12/01 00:37:08;;;;;;;1.90;1.80;;;5.50;99.90;;;;;;5001220;28;20506;-80
2021/12/01 00:39:34;;;;;;;2.63;2.00;;;5.50;99.90;;;;;;5035556;28;20432;-79
2021/12/01 00:42:01;;;;;;;1.40;1.30;;;5.40;99.90;;;;;;5018198;28;20382;-81
2021/12/01 00:44:30;;;;;;;1.33;1.23;;;5.50;99.90;;;;;;5034869;28;20891;-80
2021/12/01 00:47:06;;;;;;;2.27;2.00;;;5.60;99.90;;;;;;5035322;28;20385;-81
2021/12/01 00:49:34;;;;;;;1.97;1.80;;;5.60;99.90;;;;;;5035424;28;20397;-81
2021/12/01 00:52:01;;;;;;;1.53;1.43;;;5.60;99.90;;;;;;5035314;28;20412;-80
2021/12/01 00:54:26;;;;;;;1.93;1.80;;;5.50;99.90;;;;;;5017619;28;20456;-81
2021/12/01 00:56:53;;;;;;;1.87;1.77;;;5.60;99.90;;;;;;5035466;28;20395;-80
2021/12/01 00:59:19;;;;;;;1.90;1.80;;;5.60;99.90;;;;;;5040760;28;20200;-81
2021/12/01 01:01:46;;;;;;;2.17;2.03;;;5.60;99.90;;;;;;5027049;28;20367;-81
2021/12/01 01:04:13;;;;;;;1.43;1.33;;;5.60;99.90;;;;;;5035598;28;20370;-80
2021/12/01 01:06:42;;;;;;;1.97;1.87;;;5.60;99.90;;;;;;5035522;28;20400;-81
2021/12/01 01:09:09;;;;;;;1.90;1.80;;;5.60;99.90;;;;;;5035363;28;20378;-81
2021/12/01 01:16:58;;;;;;;2.00;1.90;;;5.60;99.90;;;;;;5038814;28;20366;-81
2021/12/01 01:19:25;;;;;;;2.30;2.10;;;5.50;99.90;;;;;;5038258;28;20447;-80
2021/12/01 01:21:52;;;;;;;1.50;1.40;;;5.60;99.90;;;;;;5038945;28;20398;-79
2021/12/01 01:24:19;;;;;;;1.70;1.60;;;5.60;99.90;;;;;;5040635;28;20370;-79
2021/12/01 01:26:45;;;;;;;2.07;1.97;;;5.60;99.90;;;;;;5039423;28;20399;-80
2021/12/01 01:29:11;;;;;;;1.80;1.70;;;5.60;99.90;;;;;;5039014;28;20381;-81
2021/12/01 01:31:38;;;;;;;1.77;1.67;;;5.60;99.90;;;;;;5041317;28;20407;-80
2021/12/01 01:34:04;;;;;;;1.80;1.70;;;5.40;99.90;;;;;;5043169;28;20173;-80
2021/12/01 01:36:31;;;;;;;1.70;1.60;;;5.50;99.90;;;;;;5044401;28;20370;-80
2021/12/01 01:38:58;;;;;;;2.20;2.00;;;5.50;99.90;;;;;;5044847;28;20371;-81
2021/12/01 01:41:24;;;;;;;1.53;1.43;;;5.40;99.90;;;;;;5042685;28;20374;-81
2021/12/01 01:43:51;;;;;;;1.90;1.80;;;5.50;99.90;;;;;;5038462;28;20491;-81
2021/12/01 01:46:19;;;;;;;1.83;1.73;;;5.40;99.90;;;;;;5038452;28;20366;-81
2021/12/01 01:48:48;;;;;;;1.57;1.47;;;5.60;99.90;;;;;;5021287;28;20485;-81
2021/12/01 01:51:17;;;;;;;1.77;1.67;;;5.60;99.90;;;;;;5038245;28;20424;-80
2021/12/01 01:53:44;;;;;;;1.80;1.70;;;5.50;99.90;;;;;;5038460;28;20370;-80
2021/12/01 01:56:11;;;;;;;1.50;1.40;;;5.30;99.90;;;;;;5038198;28;20462;-81
2021/12/01 01:58:38;;;;;;;1.40;1.30;;;5.40;99.90;;;;;;5038757;28;20373;-81
2021/12/01 02:01:07;;;;;;;1.50;1.40;;;5.50;99.90;;;;;;5038399;28;20487;-81
2021/12/01 02:03:37;;;;;;;1.67;1.50;;;5.50;99.90;;;;;;5038284;28;20381;-81
2021/12/01 02:06:05;;;;;;;1.70;1.60;;;5.40;99.90;;;;;;5038197;28;20374;-81
2021/12/01 02:08:32;;;;;;;4.30;1.83;;;5.30;99.90;;;;;;5038630;28;20471;-81
2021/12/01 02:11:00;;;;;;;1.83;1.73;;;5.40;99.90;;;;;;5038819;28;20431;-81
2021/12/01 02:13:27;;;;;;;2.43;2.10;;;5.30;99.90;;;;;;5034964;28;20393;-79
2021/12/01 02:15:53;;;;;;;1.83;1.60;;;5.30;99.90;;;;;;5041302;28;20444;-79
2021/12/01 02:18:20;;;;;;;2.33;2.13;;;5.40;99.90;;;;;;5058791;28;20390;-79
2021/12/01 02:21:05;;;;;;;1.70;1.60;;;5.50;99.90;;;;;;5057973;28;20451;-80
2021/12/01 02:23:33;;;;;;;1.93;1.83;;;5.60;99.90;;;;;;5046946;28;20403;-80
2021/12/01 02:25:58;;;;;;;1.97;1.87;;;5.60;99.90;;;;;;5039316;28;20392;-81
2021/12/01 02:28:24;;;;;;;2.00;1.90;;;5.50;99.90;;;;;;5039531;28;20418;-80
2021/12/01 02:30:50;;;;;;;1.97;1.87;;;5.60;99.90;;;;;;5020926;28;20180;-81
2021/12/01 02:33:16;;;;;;;2.40;2.20;;;5.60;99.90;;;;;;5037927;28;20369;-81
2021/12/01 02:35:42;;;;;;;3.10;1.93;;;5.50;99.90;;;;;;5019777;28;20653;-81
2021/12/01 02:38:08;;;;;;;1.93;1.80;;;5.50;99.90;;;;;;5036893;28;20192;-81
2021/12/01 02:40:34;;;;;;;2.10;2.00;;;5.50;99.90;;;;;;5036688;28;20161;-81
2021/12/01 02:43:00;;;;;;;2.37;2.27;;;5.50;99.90;;;;;;5036987;28;20391;-81
2021/12/01 02:45:26;;;;;;;3.23;1.50;;;5.40;99.90;;;;;;5037657;28;20375;-80
2021/12/01 02:47:52;;;;;;;2.20;2.00;;;5.40;99.90;;;;;;5037012;28;20424;-81
2021/12/01 02:50:18;;;;;;;2.20;2.10;;;5.60;99.90;;;;;;5037057;28;20395;-80
2021/12/01 02:52:44;;;;;;;1.60;1.50;;;5.60;99.90;;;;;;5036760;28;20157;-80
2021/12/01 02:55:11;;;;;;;2.10;1.67;;;5.40;99.90;;;;;;5019460;28;20920;-81
2021/12/01 02:57:45;;;;;;;1.63;1.53;;;5.40;99.90;;;;;;5019605;28;20369;-81
2021/12/01 03:00:12;;;;;;;1.57;1.47;;;5.40;99.90;;;;;;5037058;28;20358;-81
2021/12/01 03:02:39;;;;;;;1.50;1.40;;;5.40;99.90;;;;;;5036816;28;20391;-82
2021/12/01 03:05:06;;;;;;;1.70;1.60;;;5.30;99.90;;;;;;5036975;28;20396;-82
2021/12/01 03:07:33;;;;;;;2.27;1.90;;;5.40;99.90;;;;;;5037297;28;20362;-81
2021/12/01 03:09:59;;;;;;;1.70;1.60;;;5.50;99.90;;;;;;5037815;28;20740;-81
2021/12/01 03:12:36;;;;;;;2.30;1.90;;;5.30;99.90;;;;;;5037441;28;20370;-82
2021/12/01 03:15:02;;;;;;;1.80;1.70;;;5.50;99.90;;;;;;5038521;28;20414;-78
2021/12/01 03:17:29;;;;;;;1.63;1.50;;;5.40;99.90;;;;;;5039267;28;20355;-80
2021/12/01 03:19:56;;;;;;;1.60;1.50;;;5.40;99.90;;;;;;5035678;28;20447;-81
2021/12/01 03:22:23;;;;;;;1.47;1.37;;;5.40;99.90;;;;;;5035629;28;20415;-80
2021/12/01 03:24:49;;;;;;;3.07;1.50;;;5.50;99.90;;;;;;5036331;28;20399;-80
2021/12/01 03:27:15;;;;;;;1.40;1.30;;;5.50;99.90;;;;;;5018308;28;20378;-79
2021/12/01 03:29:41;;;;;;;1.70;1.60;;;5.50;99.90;;;;;;5036068;28;20377;-80
2021/12/01 03:32:08;;;;;;;2.03;1.70;;;5.60;99.90;;;;;;5034893;28;20833;-80
2021/12/01 03:34:35;;;;;;;0.90;0.90;;;5.50;99.90;;;;;;5035310;28;20595;-80
2021/12/01 03:37:01;;;;;;;1.23;1.13;;;5.60;99.90;;;;;;5035665;28;20371;-79
2021/12/01 03:39:31;;;;;;;1.90;1.80;;;5.50;99.90;;;;;;5017123;28;20374;-78
2021/12/01 03:41:57;;;;;;;1.53;1.43;;;5.50;99.90;;;;;;5000548;28;20497;-78
2021/12/01 03:44:23;;;;;;;1.50;1.40;;;5.60;99.90;;;;;;5000630;28;20359;-80
2021/12/01 03:46:48;;;;;;;1.50;1.40;;;5.70;99.90;;;;;;5035762;28;20824;-79
2021/12/01 03:49:15;;;;;;;1.57;1.47;;;5.70;99.90;;;;;;5018408;28;20204;-79
2021/12/01 03:51:41;;;;;;;1.80;1.70;;;5.60;99.90;;;;;;5035743;28;20172;-79
2021/12/01 03:54:07;;;;;;;1.87;1.67;;;5.60;99.90;;;;;;5035843;28;20407;-78
2021/12/01 03:56:33;;;;;;;1.90;1.77;;;5.50;99.90;;;;;;5050355;28;20173;-81
2021/12/01 03:59:00;;;;;;;1.87;1.73;;;5.60;99.90;;;;;;5022466;28;20157;-79
2021/12/01 04:01:27;;;;;;;1.73;1.63;;;5.60;99.90;;;;;;5018619;28;20403;-81
2021/12/01 04:03:53;;;;;;;1.80;1.57;;;5.70;99.90;;;;;;5017965;28;20452;-81
2021/12/01 04:06:19;;;;;;;1.40;1.30;;;5.70;99.90;;;;;;5035572;28;20411;-78
2021/12/01 04:08:46;;;;;;;1.80;1.40;;;5.80;99.90;;;;;;5035671;28;20378;-77
2021/12/01 04:11:12;;;;;;;1.70;1.60;;;5.80;99.90;;;;;;5034984;28;20369;-79
2021/12/01 04:13:40;;;;;;;1.77;1.67;;;5.80;99.90;;;;;;5035085;28;20403;-82
2021/12/01 04:16:05;;;;;;;1.60;1.50;;;5.80;99.90;;;;;;5035172;28;20773;-81
2021/12/01 04:18:31;;;;;;;1.40;1.30;;;5.70;99.90;;;;;;5017325;28;20490;-81
2021/12/01 04:20:57;;;;;;;1.43;1.33;;;5.70;99.90;;;;;;5035224;28;20169;-80
2021/12/01 04:23:23;;;;;;;1.50;1.40;;;5.70;99.90;;;;;;5034793;28;20215;-80
2021/12/01 04:25:50;;;;;;;1.40;1.30;;;5.80;99.90;;;;;;5044751;28;20184;-80
2021/12/01 04:28:16;;;;;;;1.93;1.30;;;5.80;99.90;;;;;;5055037;28;20234;-81
2021/12/01 04:30:42;;;;;;;1.60;1.50;;;5.80;99.90;;;;;;5054082;28;20506;-81
2021/12/01 04:33:08;;;;;;;1.27;1.17;;;5.80;99.90;;;;;;5055048;28;20168;-81
2021/12/01 04:35:34;;;;;;;1.40;1.30;;;5.80;99.90;;;;;;5055099;28;20417;-81
2021/12/01 04:38:01;;;;;;;1.30;1.20;;;5.90;99.90;;;;;;5055319;28;20359;-81
2021/12/01 04:40:27;;;;;;;1.43;1.33;;;6.00;99.90;;;;;;5054434;28;20512;-81
2021/12/01 04:42:54;;;;;;;1.67;1.57;;;5.90;99.90;;;;;;5057210;28;20389;-81
2021/12/01 04:45:21;;;;;;;1.23;1.13;;;6.00;99.90;;;;;;5058852;28;20361;-80
2021/12/01 04:47:49;;;;;;;1.30;1.20;;;6.00;99.90;;;;;;5052883;28;20391;-80
2021/12/01 04:50:17;;;;;;;1.30;1.20;;;6.00;99.90;;;;;;5050679;28;20448;-81
2021/12/01 04:52:44;;;;;;;1.67;1.57;;;6.00;99.90;;;;;;5078358;28;20723;-80
2021/12/01 04:55:11;;;;;;;1.30;1.20;;;6.00;99.90;;;;;;5078468;28;20445;-81
2021/12/01 04:57:40;;;;;;;2.40;1.10;;;6.10;99.90;;;;;;5079054;28;20389;-80
2021/12/01 05:00:08;;;;;;;1.20;1.10;;;6.10;99.90;;;;;;5078762;28;20375;-81
2021/12/01 05:02:34;;;;;;;1.40;1.30;;;6.00;99.90;;;;;;5060127;28;20396;-81
2021/12/01 05:05:00;;;;;;;1.40;1.30;;;6.10;99.90;;;;;;5059020;28;20365;-81
2021/12/01 05:07:26;;;;;;;1.73;1.63;;;6.20;99.90;;;;;;5059826;28;20169;-81
2021/12/01 05:09:52;;;;;;;1.63;1.53;;;6.20;99.90;;;;;;5059578;28;20221;-80
2021/12/01 05:12:18;;;;;;;1.33;1.23;;;6.20;99.90;;;;;;5059051;28;20481;-81
2021/12/01 05:14:43;;;;;;;1.40;1.30;;;6.10;99.90;;;;;;5040971;28;20195;-81
2021/12/01 05:17:09;;;;;;;1.30;1.20;;;6.10;99.90;;;;;;5058529;28;20156;-81
2021/12/01 05:19:35;;;;;;;2.37;1.43;;;6.00;99.90;;;;;;5058095;28;20243;-81
2021/12/01 05:22:02;;;;;;;2.00;1.77;;;6.10;99.90;;;;;;5058635;28;20187;-80
2021/12/01 05:24:29;;;;;;;1.47;1.27;;;6.20;99.90;;;;;;5058284;28;20380;-81
2021/12/01 05:26:55;;;;;;;1.80;1.20;;;6.20;99.90;;;;;;5059111;28;20430;-81
2021/12/01 05:29:23;;;;;;;1.30;1.20;;;6.20;99.90;;;;;;5058507;28;20410;-82
2021/12/01 05:31:50;;;;;;;2.80;1.60;;;6.30;99.90;;;;;;5058271;28;20464;-82
2021/12/01 05:34:16;;;;;;;1.97;1.73;;;6.20;99.90;;;;;;5039576;28;20424;-82
2021/12/01 05:36:42;;;;;;;1.70;1.60;;;6.30;99.90;;;;;;5058296;28;20744;-82
2021/12/01 05:39:08;;;;;;;1.40;1.30;;;6.30;99.90;;;;;;5058754;28;20395;-82
2021/12/01 05:41:35;;;;;;;2.30;1.50;;;6.30;99.90;;;;;;5058422;28;20366;-82
2021/12/01 05:44:00;;;;;;;1.97;1.87;;;6.40;99.90;;;;;;5058671;28;20398;-82
2021/12/01 05:46:27;;;;;;;2.23;1.43;;;6.40;99.90;;;;;;5058163;28;20369;-81
2021/12/01 05:48:54;;;;;;;1.60;1.50;;;6.20;99.90;;;;;;5058422;28;20163;-81
2021/12/01 05:51:21;;;;;;;2.80;1.50;;;6.20;99.90;;;;;;5058437;28;20435;-82
2021/12/01 05:53:49;;;;;;;2.13;1.47;;;6.20;99.90;;;;;;5058837;28;20830;-81
2021/12/01 05:56:16;;;;;;;1.93;1.40;;;6.20;99.90;;;;;;5057728;28;20532;-82
2021/12/01 05:58:42;;;;;;;1.80;1.67;;;6.30;99.90;;;;;;5058679;28;20387;-80
2021/12/01 06:01:09;;;;;;;1.43;1.33;;;6.30;99.90;;;;;;5057689;28;20460;-80
2021/12/01 06:03:38;;;;;;;1.57;1.47;;;6.30;99.90;;;;;;5039283;28;20398;-81
2021/12/01 06:06:03;;;;;;;1.30;1.20;;;6.40;99.90;;;;;;5057560;28;20391;-81
2021/12/01 06:08:29;;;;;;;2.33;1.63;;;6.30;99.90;;;;;;5057569;28;20391;-81
2021/12/01 06:10:55;;;;;;;1.60;1.50;;;6.30;99.90;;;;;;5058221;28;20156;-81
2021/12/01 06:13:21;;;;;;;1.90;1.30;;;6.30;99.90;;;;;;5049001;28;20214;-81
2021/12/01 06:15:51;;;;;;;1.30;1.20;;;6.30;99.90;;;;;;5047923;28;20509;-81
2021/12/01 06:18:18;;;;;;;1.40;1.30;;;6.30;99.90;;;;;;5071099;28;20386;-81
2021/12/01 06:20:45;;;;;;;4.00;1.97;;;6.40;99.90;;;;;;5053527;28;20978;-80
2021/12/01 06:23:12;;;;;;;1.83;1.50;;;6.30;99.90;;;;;;5037178;28;20386;-81
2021/12/01 06:25:38;;;;;;;1.90;1.73;;;6.40;99.90;;;;;;5043626;28;20438;-81
2021/12/01 06:28:04;;;;;;;1.70;1.57;;;6.30;99.90;;;;;;5055666;28;20902;-81
2021/12/01 06:30:34;;;;;;;2.70;1.77;;;6.40;99.90;;;;;;5049608;28;20175;-80
2021/12/01 06:33:00;;;;;;;1.80;1.70;;;6.30;99.90;;;;;;5042140;28;20419;-81
2021/12/01 06:35:27;;;;;;;1.80;1.70;;;6.30;99.90;;;;;;5046658;28;21002;-79
2021/12/01 06:37:55;;;;;;;4.17;1.60;;;6.20;99.90;;;;;;5036860;28;20540;-83
2021/12/01 06:40:22;;;;;;;1.93;1.83;;;6.10;99.90;;;;;;5061228;28;20404;-82
2021/12/01 06:42:48;;;;;;;2.80;1.90;;;6.20;99.90;;;;;;5058771;28;20407;-82
2021/12/01 06:45:16;;;;;;;1.57;1.47;;;6.20;99.90;;;;;;5052944;28;20903;-82
2021/12/01 06:47:42;;;;;;;1.67;1.57;;;6.30;99.90;;;;;;5059139;28;20413;-82
2021/12/01 06:50:09;;;;;;;1.60;1.40;;;6.30;99.90;;;;;;5065301;28;20385;-81
2021/12/01 06:52:36;;;;;;;1.80;1.70;;;6.30;99.90;;;;;;5065924;28;20855;-79
2021/12/01 06:55:03;;;;;;;1.43;1.20;;;6.30;99.90;;;;;;5049894;28;20493;-81
2021/12/01 06:57:29;;;;;;;1.40;1.30;;;6.50;99.90;;;;;;5062754;28;20449;-81
2021/12/01 06:59:56;;;;;;;1.50;1.40;;;6.50;99.90;;;;;;5068572;28;20435;-82
2021/12/01 07:02:22;;;;;;;1.80;1.70;;;6.40;99.90;;;;;;5049653;28;20177;-83
2021/12/01 07:04:48;;;;;;;1.33;1.23;;;6.40;99.90;;;;;;5063409;28;20426;-83
2021/12/01 07:07:14;;;;;;;3.10;1.30;;;6.50;99.90;;;;;;5067340;28;20394;-82
2021/12/01 07:09:40;;;;;;;1.60;1.50;;;6.60;99.90;;;;;;5060725;28;20188;-83
2021/12/01 07:12:06;;;;;;;2.93;2.73;;;6.50;99.90;;;;;;5068761;28;20321;-83
2021/12/01 07:14:32;;;;;;;2.23;1.50;;;6.60;99.90;;;;;;5071437;28;20464;-82
2021/12/01 07:16:58;;;;;;;1.60;1.50;;;6.50;99.90;;;;;;5066747;28;20423;-81
2021/12/01 07:19:24;;;;;;;1.50;1.40;;;6.60;99.90;;;;;;5062735;28;20228;-82
2021/12/01 07:21:50;;;;;;;4.87;3.00;;;6.70;99.90;;;;;;5063943;28;20866;-81
2021/12/01 07:24:16;;;;;;;3.23;1.53;;;6.70;99.90;;;;;;5056151;28;20168;-82
2021/12/01 07:26:42;;;;;;;1.90;1.60;;;6.70;99.90;;;;;;5063694;28;20180;-81
2021/12/01 07:29:09;;;;;;;2.03;1.73;;;6.80;99.90;;;;;;5070123;28;20810;-81
2021/12/01 07:31:34;;;;;;;3.73;1.60;;;6.70;99.90;;;;;;5062719;28;20472;-81
2021/12/01 07:34:04;;;;;;;1.40;1.30;;;6.70;99.90;;;;;;5065295;28;20402;-81
2021/12/01 07:36:43;;;;;;;1.50;1.40;;;6.70;99.90;;;;;;5021213;28;20422;-82
2021/12/01 07:39:09;;;;;;;1.63;1.53;;;6.60;99.90;;;;;;5022634;28;20450;-80
2021/12/01 07:41:35;;;;;;;1.90;1.60;;;6.70;99.90;;;;;;5021311;28;20205;-81
2021/12/01 07:44:24;;;;;;;1.40;1.30;;;6.70;99.90;;;;;;5002186;28;20538;-80
2021/12/01 07:46:50;;;;;;;1.97;1.87;;;6.80;99.90;;;;;;4993040;28;20193;-79
2021/12/01 07:49:19;;;;;;;1.73;1.50;;;6.70;99.90;;;;;;4982038;28;20419;-78
2021/12/01 07:51:48;;;;;;;1.73;1.57;;;6.80;99.90;;;;;;5006186;28;20459;-80
2021/12/01 07:54:14;;;;;;;1.83;1.60;;;6.80;99.90;;;;;;4993125;28;20535;-80
2021/12/01 07:56:43;;;;;;;1.30;1.20;;;6.80;99.90;;;;;;5021025;28;21858;-79
2021/12/01 07:59:15;;;;;;;1.70;1.10;;;6.70;99.90;;;;;;5025656;28;20409;-80
2021/12/01 08:01:44;;;;;;;1.20;1.10;;;6.80;99.90;;;;;;5052643;28;20782;-79
2021/12/01 08:04:13;;;;;;;4.07;1.23;;;6.70;99.90;;;;;;5042953;28;20464;-81
2021/12/01 08:06:43;;;;;;;1.47;1.37;;;6.80;99.90;;;;;;5010333;28;20429;-81
2021/12/01 08:09:12;;;;;;;2.03;1.37;;;6.80;99.90;;;;;;5033624;28;20415;-80
2021/12/01 08:11:39;;;;;;;1.60;1.50;;;6.90;99.90;;;;;;5040533;28;20415;-80
2021/12/01 08:14:06;;;;;;;5.13;1.50;;;6.90;99.90;;;;;;5041526;28;20427;-81
2021/12/01 08:16:35;;;;;;;1.87;1.77;;;6.90;99.90;;;;;;5015084;28;20511;-81
2021/12/01 08:19:04;;;;;;;1.90;1.50;;;6.80;99.90;;;;;;5012182;28;20708;-79
2021/12/01 08:21:32;;;;;;;1.40;1.30;;;6.70;99.90;;;;;;5002793;28;20509;-80
2021/12/01 08:23:59;;;;;;;1.53;1.30;;;6.90;99.90;;;;;;5018314;28;20488;-80
2021/12/01 08:26:28;;;;;;;1.37;1.27;;;6.80;99.90;;;;;;5017636;28;20417;-80
2021/12/01 08:28:54;;;;;;;1.30;1.20;;;6.80;99.90;;;;;;4995886;28;20428;-81
2021/12/01 08:31:20;;;;;;;2.23;1.50;;;6.70;99.90;;;;;;5028597;28;20473;-81
2021/12/01 08:33:47;;;;;;;1.57;1.30;;;6.70;99.90;;;;;;5022091;28;20184;-81
2021/12/01 08:36:13;;;;;;;1.60;1.50;;;6.70;99.90;;;;;;5023667;28;20524;-81
2021/12/01 08:38:40;;;;;;;4.83;1.47;;;6.70;99.90;;;;;;5025745;28;20492;-82
2021/12/01 08:41:26;;;;;;;1.67;1.57;;;6.70;99.90;;;;;;5019476;28;20428;-81
2021/12/01 08:43:52;;;;;;;1.47;1.37;;;6.70;99.90;;;;;;5022407;28;20541;-82
2021/12/01 08:46:18;;;;;;;2.17;1.97;;;6.60;99.90;;;;;;5021006;28;20351;-81
2021/12/01 08:48:44;;;;;;;1.40;1.30;;;6.70;99.90;;;;;;5042273;28;20220;-81
2021/12/01 08:51:10;;;;;;;1.77;1.67;;;6.60;99.90;;;;;;5040532;28;20433;-81
2021/12/01 08:53:39;;;;;;;2.33;2.17;;;6.60;99.90;;;;;;5041560;28;20435;-81
2021/12/01 08:56:06;;;;;;;4.03;1.70;;;6.50;99.90;;;;;;5041739;28;20269;-81
2021/12/01 08:58:32;;;;;;;1.77;1.67;;;6.60;99.90;;;;;;5044403;28;20401;-81
2021/12/01 09:01:00;;;;;;;9.20;2.10;;;6.50;99.90;;;;;;5034705;28;20429;-78
2021/12/01 09:03:26;;;;;;;2.50;1.37;;;6.60;99.90;;;;;;5014504;28;20484;-80
2021/12/01 09:05:53;;;;;;;2.43;2.20;;;6.60;99.90;;;;;;5027489;28;20431;-80
2021/12/01 09:08:22;;;;;;;1.73;1.53;;;6.60;99.90;;;;;;5013220;28;20445;-80
2021/12/01 09:10:52;;;;;;;1.53;1.43;;;6.50;99.90;;;;;;5041909;28;20450;-81
2021/12/01 09:13:20;;;;;;;2.40;2.20;;;6.70;99.90;;;;;;5036362;28;20413;-82
2021/12/01 09:15:47;;;;;;;1.57;1.40;;;6.60;99.90;;;;;;5045983;28;20476;-82
2021/12/01 09:18:13;;;;;;;2.17;1.50;;;6.70;99.90;;;;;;5041845;28;20464;-82
2021/12/01 09:20:39;;;;;;;1.50;1.40;;;6.70;99.90;;;;;;5063245;28;20441;-82
2021/12/01 09:23:05;;;;;;;1.60;1.30;;;6.80;99.90;;;;;;5061859;28;20421;-82
2021/12/01 09:25:33;;;;;;;1.43;1.33;;;6.70;99.90;;;;;;5050207;28;20195;-81
2021/12/01 09:27:59;;;;;;;6.13;1.40;;;6.70;99.90;;;;;;5060748;28;20432;-81
2021/12/01 09:30:26;;;;;;;2.20;1.40;;;6.90;99.90;;;;;;5056321;28;20941;-82
2021/12/01 09:32:51;;;;;;;1.40;1.30;;;6.80;99.90;;;;;;5057562;28;20440;-81
2021/12/01 09:35:17;;;;;;;1.10;1.00;;;6.90;99.90;;;;;;5058694;28;20876;-82
2021/12/01 09:37:43;;;;;;;1.30;1.20;;;6.90;99.90;;;;;;5061797;28;20220;-82
2021/12/01 09:40:14;;;;;;;2.43;1.77;;;7.00;99.90;;;;;;5047579;28;20176;-80
2021/12/01 09:42:42;;;;;;;1.67;1.47;;;7.10;99.90;;;;;;5067823;28;20248;-81
2021/12/01 09:45:10;;;;;;;1.77;1.10;;;7.00;99.90;;;;;;5048672;28;20446;-81
2021/12/01 09:47:37;;;;;;;1.20;1.10;;;7.10;99.90;;;;;;5056631;28;20413;-82
2021/12/01 09:50:05;;;;;;;2.70;1.57;;;7.10;99.90;;;;;;5061764;28;20959;-82
2021/12/01 09:52:30;;;;;;;1.60;1.50;;;7.00;99.90;;;;;;5062363;28;20418;-82
2021/12/01 09:54:56;;;;;;;2.40;1.50;;;7.10;99.90;;;;;;5061061;28;20466;-81
2021/12/01 09:57:22;;;;;;;1.50;1.40;;;7.20;99.90;;;;;;5059970;28;20453;-82
2021/12/01 09:59:48;;;;;;;2.80;1.70;;;7.20;99.90;;;;;;5042150;28;20207;-82
2021/12/01 10:02:15;;;;;;;1.77;1.50;;;7.20;99.90;;;;;;5046203;28;20401;-80
2021/12/01 10:04:41;;;;;;;1.67;1.57;;;7.20;99.90;;;;;;5064584;28;20223;-82
2021/12/01 10:07:30;;;;;;;1.50;1.40;;;7.20;99.90;;;;;;5046039;28;20415;-81
2021/12/01 10:10:03;;;;;;;1.90;1.53;;;7.30;99.90;;;;;;5057685;28;20192;-82
2021/12/01 10:12:44;;;;;;;5.00;1.93;;;7.40;99.90;;;;;;5058176;28;20437;-81
2021/12/01 10:15:10;;;;;;;1.33;1.23;;;7.40;99.90;;;;;;5058995;28;20441;-82
2021/12/01 10:17:36;;;;;;;2.07;1.97;;;7.40;99.90;;;;;;5060148;28;20444;-82
2021/12/01 10:20:14;;;;;;;4.07;1.27;;;7.40;99.90;;;;;;5057174;28;20447;-81
2021/12/01 10:23:09;;;;;;;1.57;1.30;;;7.50;99.90;;;;;;5063996;28;20226;-83
2021/12/01 10:25:35;;;;;;;1.70;1.60;;;7.60;99.90;;;;;;5061247;28;20889;-82
2021/12/01 10:28:01;;;;;;;1.53;1.43;;;7.60;99.90;;;;;;5061003;28;20720;-82
2021/12/01 10:30:42;;;;;;;2.37;2.13;;;7.60;99.90;;;;;;5061098;28;20494;-82
2021/12/01 10:33:13;;;;;;;1.67;1.47;;;7.60;99.90;;;;;;5054936;28;20876;-82
2021/12/01 10:35:39;;;;;;;1.10;1.00;;;7.70;99.90;;;;;;5057635;28;21265;-81
2021/12/01 10:38:07;;;;;;;1.30;1.17;;;7.80;99.90;;;;;;5058601;28;22308;-82
2021/12/01 10:40:35;;;;;;;1.40;1.30;;;7.90;99.90;;;;;;5066465;28;20979;-81
2021/12/01 10:43:06;;;;;;;1.50;1.40;;;7.90;99.90;;;;;;5059789;28;20400;-81
2021/12/01 10:45:36;;;;;;;2.40;1.17;;;7.90;99.90;;;;;;5058824;28;20439;-82
2021/12/01 10:48:04;;;;;;;1.50;1.20;;;8.00;99.90;;;;;;5041197;28;20397;-81
2021/12/01 10:50:33;;;;;;;1.20;1.10;;;7.80;99.90;;;;;;5039773;28;20417;-82
2021/12/01 10:53:21;;;;;;;2.07;1.33;;;7.90;99.90;;;;;;5057591;28;20457;-82
2021/12/01 10:55:51;;;;;;;5.80;1.60;;;8.10;99.90;;;;;;5042043;28;20462;-81
2021/12/01 10:58:18;;;;;;;1.20;1.10;;;8.00;99.90;;;;;;5060040;28;20419;-82
2021/12/01 11:00:47;;;;;;;2.07;1.20;;;8.00;99.90;;;;;;5058121;28;20427;-81
2021/12/01 11:03:19;;;;;;;3.67;1.60;;;8.00;99.90;;;;;;5032479;28;20525;-81
2021/12/01 11:05:50;;;;;;;1.50;1.40;;;8.00;99.90;;;;;;5056756;28;20454;-81
2021/12/01 11:08:19;;;;;;;1.20;1.10;;;8.10;99.90;;;;;;5057114;28;20444;-82
2021/12/01 11:10:46;;;;;;;3.80;1.23;;;8.00;99.90;;;;;;5054465;28;20456;-82
2021/12/01 11:13:13;;;;;;;1.17;1.00;;;8.10;99.90;;;;;;5063506;28;20407;-82
2021/12/01 11:15:41;;;;;;;1.40;1.30;;;8.00;99.90;;;;;;5062859;28;20450;-82
2021/12/01 11:18:09;;;;;;;2.03;1.20;;;8.10;99.90;;;;;;5062133;28;20457;-82
2021/12/01 11:20:51;;;;;;;1.43;1.20;;;8.10;99.90;;;;;;5061252;28;20444;-81
2021/12/01 11:23:47;;;;;;;1.97;1.40;;;8.10;99.90;;;;;;5013411;28;20427;-82
2021/12/01 11:26:17;;;;;;;1.30;1.20;;;8.00;99.90;;;;;;5016743;28;22196;-81
2021/12/01 11:28:48;;;;;;;2.73;1.17;;;8.00;99.90;;;;;;5015703;28;20421;-82
2021/12/01 11:31:26;;;;;;;1.30;1.20;;;8.10;99.90;;;;;;4993711;28;20452;-79
2021/12/01 11:33:55;;;;;;;2.20;1.10;;;8.10;99.90;;;;;;4993397;28;21018;-79
2021/12/01 11:36:28;;;;;;;1.33;1.10;;;8.20;99.90;;;;;;4976960;28;20460;-80
2021/12/01 11:38:58;;;;;;;0.90;0.90;;;8.30;99.90;;;;;;5017662;28;20433;-84
2021/12/01 11:41:27;;;;;;;1.10;1.00;;;8.30;99.90;;;;;;5010747;28;20422;-81
2021/12/01 11:43:55;;;;;;;1.13;1.03;;;8.30;99.90;;;;;;5019656;28;20443;-81
2021/12/01 11:46:21;;;;;;;1.27;1.17;;;8.30;99.90;;;;;;5014750;28;20778;-81
2021/12/01 11:48:51;;;;;;;1.30;1.20;;;8.30;99.90;;;;;;5004331;28;20452;-79
2021/12/01 11:51:44;;;;;;;1.30;1.20;;;8.30;99.90;;;;;;5010229;28;20512;-79
2021/12/01 11:54:15;;;;;;;1.97;1.87;;;8.20;99.90;;;;;;5024741;28;20421;-79
2021/12/01 11:57:03;;;;;;;1.30;1.20;;;8.30;99.90;;;;;;5058347;28;20638;-82
2021/12/01 11:59:32;;;;;;;1.27;1.17;;;8.20;99.90;;;;;;5057030;28;20405;-82
2021/12/01 12:02:19;;;;;;;2.73;1.43;;;8.20;99.90;;;;;;5050572;28;20628;-80
2021/12/01 12:04:48;;;;;;;1.20;1.10;;;8.20;99.90;;;;;;5059104;28;20477;-81
2021/12/01 12:07:32;;;;;;;1.23;1.10;;;8.30;99.90;;;;;;5054695;28;20414;-84
2021/12/01 12:10:16;;;;;;;2.90;1.67;;;8.30;99.90;;;;;;5059781;28;20438;-79
2021/12/01 12:12:47;;;;;;;1.17;1.07;;;8.30;99.90;;;;;;5045181;28;20489;-81
2021/12/01 12:15:46;;;;;;;1.90;1.43;;;8.20;99.90;;;;;;5059120;28;20462;-82
2021/12/01 12:18:32;;;;;;;5.23;2.73;;;8.20;99.90;;;;;;5056827;28;20425;-83
2021/12/01 12:21:12;;;;;;;2.40;1.83;;;8.30;99.90;;;;;;5046578;28;20464;-80
2021/12/01 12:23:39;;;;;;;3.10;1.37;;;8.20;99.90;;;;;;5056393;28;20432;-82
2021/12/01 12:26:10;;;;;;;2.97;2.33;;;8.20;99.90;;;;;;5058315;28;20453;-81
2021/12/01 12:28:40;;;;;;;3.90;3.50;;;8.30;99.90;;;;;;5057378;28;20403;-82
2021/12/01 12:31:20;;;;;;;3.47;1.93;;;8.40;99.90;;;;;;5057714;28;20483;-82
2021/12/01 12:33:52;;;;;;;2.67;1.93;;;8.60;99.90;;;;;;5044198;28;20495;-82
2021/12/01 12:36:37;;;;;;;1.50;1.40;;;8.70;99.90;;;;;;5044215;28;21086;-82
2021/12/01 12:39:06;;;;;;;2.07;1.70;;;8.40;99.90;;;;;;5062465;28;20397;-82
2021/12/01 12:42:05;;;;;;;2.03;1.83;;;8.40;99.90;;;;;;5064091;28;20798;-82
2021/12/01 12:44:35;;;;;;;4.30;2.23;;;8.40;99.90;;;;;;5058745;28;20392;-82
2021/12/01 12:47:05;;;;;;;2.73;1.30;;;8.40;99.90;;;;;;5041811;28;20414;-82
2021/12/01 12:49:42;;;;;;;3.80;1.50;;;8.50;99.90;;;;;;5058807;28;20481;-81
2021/12/01 12:52:35;;;;;;;3.00;2.20;;;8.50;99.90;;;;;;5057531;28;20429;-82
2021/12/01 12:55:20;;;;;;;2.03;1.80;;;8.50;99.90;;;;;;5055036;28;20454;-82
2021/12/01 12:57:58;;;;;;;2.13;1.60;;;8.50;99.90;;;;;;5045160;28;20438;-81
2021/12/01 13:00:30;;;;;;;2.00;1.83;;;8.50;99.90;;;;;;5023560;28;20471;-81
2021/12/01 13:03:01;;;;;;;1.30;1.20;;;8.50;99.90;;;;;;5058780;28;20417;-82
2021/12/01 13:05:37;;;;;;;1.30;1.20;;;8.60;99.90;;;;;;5060878;28;20411;-82
2021/12/01 13:08:23;;;;;;;1.77;1.30;;;8.60;99.90;;;;;;5058042;28;20440;-79
2021/12/01 13:10:49;;;;;;;1.30;1.20;;;8.60;99.90;;;;;;5059255;28;20417;-82